createdAt,value
2022-07-25T00:00:01.774Z,2.40
2022-07-25T00:02:30.393Z,2.75
2022-07-25T00:04:58.942Z,2.30
2022-07-25T00:07:27.754Z,2.45
2022-07-25T00:09:57.622Z,3.13
2022-07-25T00:12:26.186Z,2.50
2022-07-25T00:14:54.735Z,2.58
2022-07-25T00:17:23.199Z,2.40
2022-07-25T00:19:51.689Z,2.38
2022-07-25T00:22:20.182Z,2.35
2022-07-25T00:24:48.685Z,2.30
2022-07-25T00:27:18.517Z,2.53
2022-07-25T00:29:47.038Z,2.20
2022-07-25T00:32:15.552Z,2.60
2022-07-25T00:34:44.003Z,2.60
2022-07-25T00:37:12.478Z,2.40
2022-07-25T00:39:40.950Z,2.45
2022-07-25T00:42:09.606Z,2.50
2022-07-25T00:44:39.474Z,2.63
2022-07-25T00:47:08.029Z,2.22
2022-07-25T00:49:36.487Z,2.88
2022-07-25T00:52:05.114Z,2.50
2022-07-25T00:54:33.585Z,2.38
2022-07-25T00:57:02.175Z,2.40
2022-07-25T00:59:30.899Z,2.70
2022-07-25T01:02:03.905Z,2.33
2022-07-25T01:04:32.894Z,2.50
2022-07-25T01:07:01.951Z,2.53
2022-07-25T01:09:30.684Z,2.80
2022-07-25T01:11:59.141Z,2.40
2022-07-25T01:14:27.669Z,3.20
2022-07-25T01:16:56.434Z,2.60
2022-07-25T01:19:26.305Z,2.58
2022-07-25T01:21:56.373Z,2.58
2022-07-25T01:24:24.890Z,2.50
2022-07-25T01:26:53.470Z,2.63
2022-07-25T01:29:21.967Z,2.63
2022-07-25T01:31:50.425Z,2.38
2022-07-25T01:34:19.013Z,2.10
2022-07-25T01:36:47.569Z,2.40
2022-07-25T01:39:17.421Z,2.40
2022-07-25T01:41:45.910Z,2.40
2022-07-25T01:44:14.550Z,2.40
2022-07-25T01:46:43.058Z,2.05
2022-07-25T01:49:11.690Z,2.30
2022-07-25T01:51:40.252Z,2.15
2022-07-25T01:54:10.213Z,2.30
2022-07-25T01:56:44.637Z,2.83
2022-07-25T01:59:16.831Z,2.10
2022-07-25T02:01:45.377Z,2.30
2022-07-25T02:04:14.080Z,2.55
2022-07-25T02:06:42.635Z,2.45
2022-07-25T02:09:11.181Z,2.50
2022-07-25T02:11:41.103Z,2.58
2022-07-25T02:14:09.699Z,2.80
2022-07-25T02:16:38.444Z,2.38
2022-07-25T02:19:07.000Z,2.55
2022-07-25T02:21:35.463Z,2.55
2022-07-25T02:24:04.142Z,2.75
2022-07-25T02:26:32.951Z,2.15
2022-07-25T02:29:02.879Z,2.45
2022-07-25T02:31:31.385Z,2.60
2022-07-25T02:33:59.868Z,2.47
2022-07-25T02:36:28.385Z,2.70
2022-07-25T02:38:56.836Z,2.42
2022-07-25T02:41:25.326Z,2.28
2022-07-25T02:43:53.817Z,2.30
2022-07-25T02:46:23.867Z,2.33
2022-07-25T02:48:52.509Z,2.40
2022-07-25T02:51:21.031Z,2.10
2022-07-25T02:53:58.446Z,2.70
2022-07-25T02:56:30.125Z,2.20
2022-07-25T02:58:59.101Z,2.53
2022-07-25T03:01:29.052Z,2.42
2022-07-25T03:03:57.619Z,2.72
2022-07-25T03:06:26.195Z,2.33
2022-07-25T03:08:54.663Z,2.60
2022-07-25T03:11:23.135Z,2.22
2022-07-25T03:13:52.789Z,2.35
2022-07-25T03:16:21.427Z,2.45
2022-07-25T03:18:51.465Z,2.53
2022-07-25T03:21:19.963Z,2.50
2022-07-25T03:23:52.428Z,2.60
2022-07-25T03:26:21.480Z,2.53
2022-07-25T03:28:49.917Z,2.40
2022-07-25T03:31:18.469Z,2.30
2022-07-25T03:33:47.207Z,2.55
2022-07-25T03:36:17.037Z,2.35
2022-07-25T03:38:45.529Z,2.50
2022-07-25T03:41:14.136Z,2.50
2022-07-25T03:43:42.650Z,2.40
2022-07-25T03:46:11.344Z,2.58
2022-07-25T03:48:39.917Z,2.72
2022-07-25T03:51:08.558Z,2.70
2022-07-25T03:53:52.725Z,2.40
2022-07-25T03:56:21.201Z,2.67
2022-07-25T03:58:49.645Z,2.50
2022-07-25T04:01:18.149Z,2.35
2022-07-25T04:03:47.739Z,2.45
2022-07-25T04:06:16.214Z,2.70
2022-07-25T04:08:46.138Z,2.55
2022-07-25T04:11:14.604Z,2.50
2022-07-25T04:13:43.134Z,2.63
2022-07-25T04:16:16.867Z,2.90
2022-07-25T04:18:51.817Z,2.50
2022-07-25T04:21:20.489Z,3.00
2022-07-25T04:23:50.511Z,2.90
2022-07-25T04:26:19.065Z,2.72
2022-07-25T04:28:47.537Z,2.58
2022-07-25T04:31:16.563Z,2.90
2022-07-25T04:33:45.565Z,2.90
2022-07-25T04:36:18.146Z,2.85
2022-07-25T04:38:47.129Z,2.65
2022-07-25T04:41:17.001Z,3.10
2022-07-25T04:43:48.749Z,2.90
2022-07-25T04:46:20.331Z,2.70
2022-07-25T04:48:51.066Z,2.50
2022-07-25T04:51:19.948Z,2.65
2022-07-25T04:53:48.534Z,2.75
2022-07-25T04:56:18.409Z,2.80
2022-07-25T04:58:46.888Z,2.80
2022-07-25T05:01:15.468Z,2.80
2022-07-25T05:03:50.067Z,3.03
2022-07-25T05:06:19.646Z,3.08
2022-07-25T05:08:48.325Z,2.92
2022-07-25T05:11:18.165Z,2.63
2022-07-25T05:13:46.605Z,2.80
2022-07-25T05:16:15.180Z,2.78
2022-07-25T05:18:43.755Z,3.10
2022-07-25T05:21:12.953Z,3.15
2022-07-25T05:23:42.984Z,3.20
2022-07-25T05:26:11.500Z,3.03
2022-07-25T05:28:41.409Z,3.03
2022-07-25T05:31:09.958Z,3.00
2022-07-25T05:33:38.474Z,3.22
2022-07-25T05:36:08.741Z,3.17
2022-07-25T05:38:37.281Z,3.15
2022-07-25T05:41:06.406Z,3.05
2022-07-25T05:43:34.874Z,3.55
2022-07-25T05:46:05.070Z,3.03
2022-07-25T05:48:33.780Z,3.50
2022-07-25T05:51:02.819Z,3.10
2022-07-25T05:53:31.362Z,3.40
2022-07-25T05:55:59.956Z,3.83
2022-07-25T05:58:30.039Z,3.10
2022-07-25T06:00:58.850Z,3.38
2022-07-25T06:03:28.864Z,3.00
2022-07-25T06:05:57.863Z,2.95
2022-07-25T06:08:28.672Z,3.30
2022-07-25T06:10:57.829Z,3.38
2022-07-25T06:13:26.408Z,3.30
2022-07-25T06:15:56.664Z,3.08
2022-07-25T06:18:25.378Z,3.70
2022-07-25T06:20:55.461Z,3.22
2022-07-25T06:23:23.911Z,3.20
2022-07-25T06:25:56.369Z,3.30
2022-07-25T06:28:24.846Z,4.15
2022-07-25T06:30:53.313Z,3.47
2022-07-25T06:33:21.996Z,3.45
2022-07-25T06:35:50.467Z,3.80
2022-07-25T06:38:20.281Z,3.67
2022-07-25T06:40:48.775Z,3.60
2022-07-25T06:43:17.274Z,3.63
2022-07-25T06:45:47.594Z,3.60
2022-07-25T06:48:16.269Z,3.40
2022-07-25T06:50:44.801Z,3.75
2022-07-25T06:53:13.261Z,3.30
2022-07-25T06:55:43.117Z,4.10
2022-07-25T06:58:11.584Z,4.28
2022-07-25T07:00:40.510Z,3.20
2022-07-25T07:03:09.128Z,3.60
2022-07-25T07:05:37.776Z,3.38
2022-07-25T07:08:06.461Z,3.30
2022-07-25T07:10:35.135Z,3.50
2022-07-25T07:13:09.443Z,3.42
2022-07-25T07:15:38.488Z,3.50
2022-07-25T07:18:07.550Z,3.40
2022-07-25T07:20:36.085Z,3.70
2022-07-25T07:23:04.531Z,3.80
2022-07-25T07:25:34.356Z,3.65
2022-07-25T07:28:02.924Z,3.70
2022-07-25T07:30:58.477Z,3.60
2022-07-25T07:33:21.259Z,3.85
2022-07-25T07:35:49.718Z,3.72
2022-07-25T07:38:18.411Z,3.88
2022-07-25T07:40:46.869Z,3.72
2022-07-25T07:43:15.349Z,3.60
2022-07-25T07:45:45.683Z,3.42
2022-07-25T07:48:14.211Z,4.00
2022-07-25T07:50:42.678Z,3.90
2022-07-25T07:53:11.133Z,3.35
2022-07-25T07:55:45.366Z,3.88
2022-07-25T07:58:15.732Z,3.92
2022-07-25T08:00:46.098Z,4.10
2022-07-25T08:03:15.300Z,3.88
2022-07-25T08:05:44.868Z,3.78
2022-07-25T08:08:14.210Z,3.47
2022-07-25T08:10:43.358Z,3.60
2022-07-25T08:13:15.325Z,3.40
2022-07-25T08:15:45.845Z,3.67
2022-07-25T08:18:17.376Z,3.45
2022-07-25T08:20:46.582Z,3.13
2022-07-25T08:23:15.100Z,3.53
2022-07-25T08:25:43.974Z,4.47
2022-07-25T08:28:12.407Z,3.58
2022-07-25T08:30:42.067Z,3.42
2022-07-25T08:33:13.410Z,4.20
2022-07-25T08:35:42.854Z,3.95
2022-07-25T08:38:12.150Z,3.30
2022-07-25T08:40:40.661Z,3.63
2022-07-25T08:43:12.398Z,3.67
2022-07-25T08:45:43.082Z,3.63
2022-07-25T08:48:12.987Z,3.22
2022-07-25T08:50:41.894Z,3.50
2022-07-25T08:53:31.973Z,3.40
2022-07-25T08:55:59.082Z,3.60
2022-07-25T08:58:27.535Z,3.22
2022-07-25T09:00:56.036Z,3.65
2022-07-25T09:03:25.965Z,3.22
2022-07-25T09:05:54.617Z,3.60
2022-07-25T09:08:23.118Z,3.78
2022-07-25T09:10:52.405Z,3.72
2022-07-25T09:13:22.268Z,3.50
2022-07-25T09:15:51.895Z,3.92
2022-07-25T09:18:21.061Z,3.50
2022-07-25T09:20:52.109Z,3.50
2022-07-25T09:23:30.592Z,4.10
2022-07-25T09:26:06.050Z,3.70
2022-07-25T09:28:34.810Z,3.53
2022-07-25T09:31:03.857Z,3.83
2022-07-25T09:33:33.552Z,3.65
2022-07-25T09:36:11.877Z,3.63
2022-07-25T09:38:40.474Z,3.95
2022-07-25T09:41:09.411Z,3.90
2022-07-25T09:43:38.660Z,3.70
2022-07-25T09:46:07.827Z,4.18
2022-07-25T09:48:36.532Z,4.07
2022-07-25T09:51:06.800Z,3.80
2022-07-25T09:53:35.702Z,3.78
2022-07-25T09:56:04.221Z,3.90
2022-07-25T09:58:32.723Z,3.42
2022-07-25T10:01:03.515Z,3.65
2022-07-25T10:03:50.040Z,3.35
2022-07-25T10:06:22.706Z,3.17
2022-07-25T10:08:51.593Z,3.08
2022-07-25T10:11:20.741Z,3.28
2022-07-25T10:13:49.341Z,3.55
2022-07-25T10:16:18.999Z,3.35
2022-07-25T10:18:51.441Z,3.40
2022-07-25T10:21:29.112Z,3.60
2022-07-25T10:24:05.591Z,3.60
2022-07-25T10:26:35.666Z,3.55
2022-07-25T10:29:09.558Z,3.47
2022-07-25T10:31:39.751Z,3.45
2022-07-25T10:34:10.887Z,3.53
2022-07-25T10:36:45.041Z,3.40
2022-07-25T10:39:14.689Z,4.10
2022-07-25T10:41:44.018Z,3.95
2022-07-25T10:44:13.928Z,3.55
2022-07-25T10:46:44.606Z,3.55
2022-07-25T10:49:19.350Z,3.80
2022-07-25T10:51:57.492Z,3.95
2022-07-25T10:54:25.942Z,3.83
2022-07-25T10:56:55.619Z,3.85
2022-07-25T10:59:28.581Z,4.95
2022-07-25T11:01:57.530Z,4.38
2022-07-25T11:04:26.453Z,4.10
2022-07-25T11:06:56.395Z,4.32
2022-07-25T11:09:27.727Z,4.10
2022-07-25T11:11:57.489Z,3.72
2022-07-25T11:14:27.498Z,3.83
2022-07-25T11:16:57.150Z,3.83
2022-07-25T11:19:26.810Z,4.50
2022-07-25T11:21:57.605Z,4.18
2022-07-25T11:24:36.899Z,4.10
2022-07-25T11:27:11.321Z,4.07
2022-07-25T11:29:41.642Z,4.22
2022-07-25T11:32:11.286Z,3.70
2022-07-25T11:34:41.708Z,3.88
2022-07-25T11:37:12.195Z,4.00
2022-07-25T11:39:42.074Z,3.60
2022-07-25T11:42:11.528Z,3.83
2022-07-25T11:44:45.614Z,4.13
2022-07-25T11:47:24.630Z,4.13
2022-07-25T11:49:54.268Z,4.32
2022-07-25T11:52:26.162Z,3.92
2022-07-25T11:54:55.326Z,3.90
2022-07-25T11:57:24.551Z,3.97
2022-07-25T11:59:53.169Z,3.85
2022-07-25T12:02:26.034Z,4.22
2022-07-25T12:04:58.512Z,3.67
2022-07-25T12:07:41.877Z,4.00
2022-07-25T12:10:11.651Z,4.18
2022-07-25T12:12:48.636Z,4.00
2022-07-25T12:15:18.473Z,3.80
2022-07-25T12:17:46.962Z,3.83
2022-07-25T12:20:16.917Z,3.90
2022-07-25T12:22:47.066Z,3.90
2022-07-25T12:25:15.562Z,4.18
2022-07-25T12:27:44.279Z,4.05
2022-07-25T12:30:13.392Z,3.97
2022-07-25T12:32:42.393Z,3.90
2022-07-25T12:35:12.145Z,4.03
2022-07-25T12:37:40.632Z,3.53
2022-07-25T12:40:11.166Z,3.72
2022-07-25T12:42:39.694Z,3.88
2022-07-25T12:45:09.330Z,3.20
2022-07-25T12:47:37.866Z,3.17
2022-07-25T12:50:06.823Z,3.92
2022-07-25T12:52:35.462Z,3.63
2022-07-25T12:55:03.922Z,3.55
2022-07-25T12:57:33.770Z,3.20
2022-07-25T13:00:02.287Z,3.28
2022-07-25T13:02:30.820Z,3.20
2022-07-25T13:04:59.357Z,3.63
2022-07-25T13:07:27.832Z,3.30
2022-07-25T13:09:56.363Z,3.67
2022-07-25T13:12:25.209Z,3.45
2022-07-25T13:14:55.166Z,3.38
2022-07-25T13:17:27.147Z,3.75
2022-07-25T13:19:56.327Z,3.72
2022-07-25T13:22:25.657Z,3.75
2022-07-25T13:24:54.538Z,3.50
2022-07-25T13:27:23.489Z,3.40
2022-07-25T13:29:54.969Z,3.38
2022-07-25T13:32:26.513Z,3.47
2022-07-25T13:34:55.051Z,2.97
2022-07-25T13:37:23.665Z,3.75
2022-07-25T13:39:52.414Z,3.40
2022-07-25T13:42:20.928Z,3.50
2022-07-25T13:44:49.430Z,3.30
2022-07-25T13:47:17.998Z,3.10
2022-07-25T13:49:47.866Z,3.70
2022-07-25T13:52:16.895Z,3.45
2022-07-25T13:54:45.550Z,3.20
2022-07-25T13:57:14.122Z,3.10
2022-07-25T13:59:42.665Z,3.35
2022-07-25T14:02:11.256Z,2.92
2022-07-25T14:04:40.065Z,3.20
2022-07-25T14:07:09.973Z,3.70
2022-07-25T14:09:38.931Z,3.08
2022-07-25T14:12:07.496Z,3.55
2022-07-25T14:14:35.972Z,3.30
2022-07-25T14:17:04.594Z,3.05
2022-07-25T14:19:33.206Z,3.28
2022-07-25T14:22:01.697Z,3.47
2022-07-25T14:24:31.559Z,3.55
2022-07-25T14:27:00.586Z,3.45
2022-07-25T14:29:30.661Z,3.65
2022-07-25T14:31:59.633Z,3.40
2022-07-25T14:34:28.153Z,3.15
2022-07-25T14:36:56.647Z,3.42
2022-07-25T14:39:25.108Z,3.17
2022-07-25T14:41:54.945Z,3.50
2022-07-25T14:44:23.454Z,3.28
2022-07-25T14:46:52.107Z,3.55
2022-07-25T14:49:20.785Z,3.53
2022-07-25T14:51:49.546Z,3.65
2022-07-25T14:54:18.447Z,3.67
2022-07-25T14:56:47.084Z,3.90
2022-07-25T14:59:17.741Z,3.70
2022-07-25T15:01:46.521Z,3.25
2022-07-25T15:04:14.988Z,3.50
2022-07-25T15:06:43.451Z,3.60
2022-07-25T15:09:11.991Z,3.75
2022-07-25T15:11:40.472Z,3.45
2022-07-25T15:14:08.969Z,3.60
2022-07-25T15:16:39.397Z,3.58
2022-07-25T15:19:16.929Z,3.17
2022-07-25T15:21:46.264Z,3.15
2022-07-25T15:24:14.950Z,3.15
2022-07-25T15:26:43.650Z,3.03
2022-07-25T15:29:13.600Z,3.55
2022-07-25T15:31:43.483Z,3.08
2022-07-25T15:34:12.104Z,3.17
2022-07-25T15:36:40.604Z,2.90
2022-07-25T15:39:09.755Z,3.28
2022-07-25T15:41:38.486Z,3.08
2022-07-25T15:44:07.223Z,2.60
2022-07-25T15:46:35.834Z,3.00
2022-07-25T15:49:06.080Z,2.65
2022-07-25T15:51:34.851Z,2.70
2022-07-25T15:54:03.358Z,3.00
2022-07-25T15:56:31.924Z,2.60
2022-07-25T15:59:00.430Z,2.60
2022-07-25T16:01:28.943Z,2.58
2022-07-25T16:03:59.912Z,2.88
2022-07-25T16:06:30.026Z,2.92
2022-07-25T16:08:58.569Z,2.65
2022-07-25T16:11:27.186Z,2.60
2022-07-25T16:13:55.776Z,2.97
2022-07-25T16:16:25.794Z,2.80
2022-07-25T16:18:54.411Z,2.58
2022-07-25T16:21:22.892Z,2.63
2022-07-25T16:23:52.969Z,3.03
2022-07-25T16:26:21.486Z,2.85
2022-07-25T16:28:49.953Z,3.00
2022-07-25T16:31:18.479Z,2.67
2022-07-25T16:33:46.962Z,2.60
2022-07-25T16:36:15.463Z,2.88
2022-07-25T16:38:45.258Z,2.92
2022-07-25T16:41:15.203Z,3.08
2022-07-25T16:43:43.698Z,2.80
2022-07-25T16:46:12.256Z,3.13
2022-07-25T16:48:40.819Z,2.90
2022-07-25T16:51:09.378Z,2.70
2022-07-25T16:53:37.927Z,2.70
2022-07-25T16:56:06.674Z,2.42
2022-07-25T16:58:36.706Z,3.15
2022-07-25T17:01:05.603Z,3.22
2022-07-25T17:03:34.069Z,3.30
2022-07-25T17:06:02.590Z,2.63
2022-07-25T17:08:32.722Z,3.17
2022-07-25T17:11:01.759Z,3.28
2022-07-25T17:13:30.227Z,3.40
2022-07-25T17:16:00.232Z,3.38
2022-07-25T17:18:28.891Z,3.10
2022-07-25T17:20:57.442Z,2.92
2022-07-25T17:23:26.155Z,3.60
2022-07-25T17:25:54.677Z,3.13
2022-07-25T17:28:23.441Z,3.30
2022-07-25T17:30:52.621Z,3.58
2022-07-25T17:33:22.562Z,3.28
2022-07-25T17:35:52.310Z,3.20
2022-07-25T17:38:25.855Z,3.20
2022-07-25T17:40:55.578Z,3.50
2022-07-25T17:43:24.067Z,3.60
2022-07-25T17:45:52.541Z,3.10
2022-07-25T17:48:23.468Z,3.70
2022-07-25T17:50:52.481Z,3.22
2022-07-25T17:53:21.074Z,3.03
2022-07-25T17:55:50.131Z,3.60
2022-07-25T17:58:18.682Z,2.97
2022-07-25T18:00:47.167Z,3.50
2022-07-25T18:03:15.744Z,2.95
2022-07-25T18:05:46.351Z,4.00
2022-07-25T18:08:14.824Z,3.35
2022-07-25T18:10:43.373Z,3.17
2022-07-25T18:13:13.165Z,3.38
2022-07-25T18:15:41.679Z,3.65
2022-07-25T18:18:12.852Z,2.80
2022-07-25T18:20:44.416Z,2.95
2022-07-25T18:23:14.308Z,2.70
2022-07-25T18:25:42.802Z,2.97
2022-07-25T18:28:11.628Z,3.22
2022-07-25T18:30:40.287Z,2.83
2022-07-25T18:33:08.866Z,3.47
2022-07-25T18:35:37.334Z,2.70
2022-07-25T18:38:05.814Z,3.60
2022-07-25T18:40:35.673Z,3.03
2022-07-25T18:43:06.115Z,3.17
2022-07-25T18:45:38.137Z,3.50
2022-07-25T18:48:06.813Z,2.97
2022-07-25T18:50:35.533Z,3.13
2022-07-25T18:53:03.998Z,2.95
2022-07-25T18:55:32.562Z,3.08
2022-07-25T18:58:02.438Z,3.33
2022-07-25T19:00:30.900Z,3.45
2022-07-25T19:02:59.417Z,3.13
2022-07-25T19:05:27.947Z,2.97
2022-07-25T19:07:59.675Z,3.10
2022-07-25T19:10:28.201Z,3.15
2022-07-25T19:12:56.708Z,3.08
2022-07-25T19:15:28.099Z,2.83
2022-07-25T19:17:56.736Z,2.65
2022-07-25T19:20:25.525Z,2.95
2022-07-25T19:22:54.037Z,3.42
2022-07-25T19:25:22.740Z,3.03
2022-07-25T19:27:51.503Z,2.95
2022-07-25T19:30:20.679Z,3.10
2022-07-25T19:32:50.808Z,2.95
2022-07-25T19:35:25.858Z,2.88
2022-07-25T19:37:54.756Z,3.22
2022-07-25T19:40:23.398Z,3.35
2022-07-25T19:42:51.865Z,3.42
2022-07-25T19:45:20.370Z,3.10
2022-07-25T19:47:50.241Z,3.30
2022-07-25T19:50:18.757Z,3.42
2022-07-25T19:52:47.266Z,3.30
2022-07-25T19:55:15.735Z,3.15
2022-07-25T19:57:44.925Z,3.47
2022-07-25T20:00:13.835Z,3.67
2022-07-25T20:02:43.312Z,3.13
2022-07-25T20:05:13.820Z,3.50
2022-07-25T20:07:42.310Z,3.45
2022-07-25T20:10:11.346Z,3.10
2022-07-25T20:12:41.814Z,3.47
2022-07-25T20:15:10.593Z,3.22
2022-07-25T20:17:39.132Z,3.20
2022-07-25T20:20:08.319Z,3.40
2022-07-25T20:22:38.438Z,4.15
2022-07-25T20:25:07.366Z,3.53
2022-07-25T20:27:35.835Z,3.95
2022-07-25T20:30:05.566Z,3.00
2022-07-25T20:32:34.038Z,3.50
2022-07-25T20:35:02.508Z,3.28
2022-07-25T20:37:30.954Z,3.33
2022-07-25T20:40:01.314Z,3.30
2022-07-25T20:42:30.938Z,3.88
2022-07-25T20:44:59.593Z,3.20
2022-07-25T20:47:28.060Z,3.72
2022-07-25T20:49:56.510Z,3.53
2022-07-25T20:52:24.993Z,3.40
2022-07-25T20:54:53.433Z,3.42
2022-07-25T20:57:23.485Z,3.38
2022-07-25T20:59:51.974Z,3.50
2022-07-25T21:02:20.500Z,4.10
2022-07-25T21:04:48.996Z,3.40
2022-07-25T21:07:17.485Z,3.85
2022-07-25T21:09:45.968Z,3.25
2022-07-25T21:12:14.449Z,3.33
2022-07-25T21:14:44.387Z,3.60
2022-07-25T21:17:12.904Z,3.85
2022-07-25T21:19:41.400Z,3.90
2022-07-25T21:22:09.855Z,3.63
2022-07-25T21:24:38.411Z,3.70
2022-07-25T21:27:06.876Z,4.10
2022-07-25T21:29:35.355Z,4.13
2022-07-25T21:32:05.644Z,4.60
2022-07-25T21:34:34.210Z,3.92
2022-07-25T21:37:02.929Z,4.13
2022-07-25T21:39:31.404Z,4.03
2022-07-25T21:41:59.939Z,4.57
2022-07-25T21:44:29.627Z,4.68
2022-07-25T21:46:58.122Z,4.22
2022-07-25T21:49:45.756Z,4.90
2022-07-25T21:52:14.477Z,4.68
2022-07-25T21:54:43.017Z,4.95
2022-07-25T21:57:13.917Z,5.50
2022-07-25T21:59:42.658Z,5.13
2022-07-25T22:02:11.398Z,5.32
2022-07-25T22:04:41.278Z,5.10
2022-07-25T22:07:09.757Z,4.80
2022-07-25T22:09:38.216Z,5.57
2022-07-25T22:12:06.953Z,5.40
2022-07-25T22:14:35.534Z,5.80
2022-07-25T22:17:04.063Z,5.65
2022-07-25T22:19:32.591Z,5.93
2022-07-25T22:22:02.473Z,5.53
2022-07-25T22:24:30.959Z,5.68
2022-07-25T22:26:59.510Z,6.05
2022-07-25T22:29:27.973Z,5.88
2022-07-25T22:31:56.605Z,5.72
2022-07-25T22:34:25.141Z,5.65
2022-07-25T22:36:53.591Z,5.85
2022-07-25T22:39:23.446Z,5.50
2022-07-25T22:41:51.916Z,5.70
2022-07-25T22:44:20.414Z,5.80
2022-07-25T22:46:48.909Z,5.80
2022-07-25T22:49:17.507Z,5.18
2022-07-25T22:51:46.019Z,5.70
2022-07-25T22:54:14.516Z,5.22
2022-07-25T22:56:44.365Z,5.38
2022-07-25T22:59:12.811Z,5.53
2022-07-25T23:01:41.265Z,5.65
2022-07-25T23:04:09.800Z,5.28
2022-07-25T23:06:38.370Z,5.15
2022-07-25T23:09:07.056Z,5.50
2022-07-25T23:11:35.798Z,5.55
2022-07-25T23:14:05.625Z,5.50
2022-07-25T23:16:34.139Z,5.55
2022-07-25T23:19:02.637Z,5.78
2022-07-25T23:21:31.104Z,5.53
2022-07-25T23:24:00.115Z,5.40
2022-07-25T23:26:28.975Z,5.43
2022-07-25T23:28:57.487Z,5.22
2022-07-25T23:31:27.372Z,5.38
2022-07-25T23:33:55.862Z,5.55
2022-07-25T23:36:24.314Z,5.13
2022-07-25T23:38:52.761Z,5.95
2022-07-25T23:41:21.206Z,6.03
2022-07-25T23:43:57.238Z,5.95
2022-07-25T23:46:29.571Z,5.97
2022-07-25T23:49:00.186Z,6.07
2022-07-25T23:51:28.749Z,5.40
2022-07-25T23:53:57.502Z,5.85
2022-07-25T23:56:25.969Z,6.05
2022-07-25T23:58:54.442Z,6.55
